Time;durP1;ratioP1;P1;durP2;ratioP2;P2;SDS_P1;SDS_P2;PMS_P1;PMS_P2;Temp;Humidity;BMP_temperature;BMP_pressure;BME280_temperature;BME280_humidity;BME280_pressure;Samples;Min_cycle;Max_cycle;Signal;HPM_P1;HPM_P2
2021/11/10 00:01:37;;;;;;;0.75;0.70;;;;;;;;;;5093260;28;20095;-82
2021/11/10 00:04:02;;;;;;;0.82;0.82;;;;;;;;;;5092122;28;20032;-83
2021/11/10 00:06:28;;;;;;;0.10;0.10;;;;;;;;;;5093170;28;20039;-83
2021/11/10 00:08:53;;;;;;;0.20;0.20;;;;;;;;;;5093410;28;20412;-82
2021/11/10 00:11:18;;;;;;;0.90;0.90;;;;;;;;;;5092793;28;20043;-82
2021/11/10 00:13:44;;;;;;;0.22;0.22;;;;;;;;;;5075436;28;20037;-82
2021/11/10 00:16:09;;;;;;;0.30;0.30;;;;;;;;;;5074147;28;20051;-82
2021/11/10 00:18:35;;;;;;;0.57;0.57;;;;;;;;;;5089378;28;20379;-82
2021/11/10 00:21:00;;;;;;;0.10;0.10;;;;;;;;;;5097165;28;20059;-82
2021/11/10 00:23:25;;;;;;;0.45;0.45;;;;;;;;;;5097058;28;20020;-82
2021/11/10 00:25:51;;;;;;;0.15;0.15;;;;;;;;;;5093935;28;20380;-83
2021/11/10 00:28:16;;;;;;;8.85;1.85;;;;;;;;;;5094122;28;20098;-83
2021/11/10 00:30:42;;;;;;;0.43;0.43;;;;;;;;;;5096798;28;20027;-83
2021/11/10 00:33:07;;;;;;;0.05;0.05;;;;;;;;;;5096572;28;20032;-83
2021/11/10 00:35:33;;;;;;;0.20;0.20;;;;;;;;;;5085981;28;20111;-82
2021/11/10 00:37:58;;;;;;;0.10;0.10;;;;;;;;;;5090612;28;20528;-83
2021/11/10 00:40:24;;;;;;;0.35;0.35;;;;;;;;;;5079966;28;20457;-83
2021/11/10 00:42:53;;;;;;;0.57;0.57;;;;;;;;;;5096208;28;20426;-83
2021/11/10 00:45:19;;;;;;;0.15;0.15;;;;;;;;;;5086046;28;20465;-83
2021/11/10 00:47:44;;;;;;;0.10;0.10;;;;;;;;;;5087869;28;20031;-83
2021/11/10 00:50:10;;;;;;;0.10;0.10;;;;;;;;;;5080467;28;20025;-83
2021/11/10 00:52:36;;;;;;;0.20;0.20;;;;;;;;;;5095220;28;20024;-83
2021/11/10 00:55:02;;;;;;;0.10;0.10;;;;;;;;;;5089728;28;20024;-82
2021/11/10 00:57:27;;;;;;;0.57;0.43;;;;;;;;;;5085930;28;20024;-82
2021/11/10 00:59:52;;;;;;;2.35;0.65;;;;;;;;;;5082679;28;20020;-82
2021/11/10 01:02:18;;;;;;;0.20;0.20;;;;;;;;;;5092801;28;20114;-82
2021/11/10 01:04:43;;;;;;;0.30;0.30;;;;;;;;;;5079584;28;20028;-82
2021/11/10 01:07:08;;;;;;;1.08;0.38;;;;;;;;;;5093557;28;20111;-82
2021/11/10 01:09:40;;;;;;;0.00;0.00;;;;;;;;;;5096122;28;20457;-82
2021/11/10 01:12:09;;;;;;;0.25;0.25;;;;;;;;;;5081172;28;20033;-82
2021/11/10 01:14:34;;;;;;;0.08;0.08;;;;;;;;;;5085361;28;20074;-82
2021/11/10 01:17:00;;;;;;;1.05;0.95;;;;;;;;;;5081248;28;20036;-82
2021/11/10 01:19:25;;;;;;;0.70;0.65;;;;;;;;;;5095557;28;20028;-82
2021/11/10 01:21:50;;;;;;;0.10;0.10;;;;;;;;;;5095548;28;20028;-83
2021/11/10 01:24:15;;;;;;;0.40;0.40;;;;;;;;;;5081027;28;20472;-82
2021/11/10 01:26:41;;;;;;;0.90;0.73;;;;;;;;;;5092170;28;20028;-82
2021/11/10 01:29:06;;;;;;;0.20;0.20;;;;;;;;;;5084287;28;20021;-82
2021/11/10 01:31:31;;;;;;;0.10;0.10;;;;;;;;;;5095869;28;20097;-82
2021/11/10 01:33:57;;;;;;;0.50;0.50;;;;;;;;;;5094240;28;20032;-82
2021/11/10 01:36:22;;;;;;;2.08;1.20;;;;;;;;;;5095575;28;20040;-82
2021/11/10 01:38:47;;;;;;;0.25;0.25;;;;;;;;;;5095711;28;20080;-82
2021/11/10 01:41:13;;;;;;;0.20;0.20;;;;;;;;;;5095079;28;20012;-82
2021/11/10 01:43:38;;;;;;;0.60;0.35;;;;;;;;;;5095449;28;20396;-82
2021/11/10 01:46:03;;;;;;;0.15;0.15;;;;;;;;;;5095861;28;20055;-82
2021/11/10 01:48:29;;;;;;;0.00;0.00;;;;;;;;;;5095853;28;20067;-82
2021/11/10 01:50:54;;;;;;;0.22;0.13;;;;;;;;;;5094988;28;20052;-83
2021/11/10 01:53:19;;;;;;;0.00;0.00;;;;;;;;;;5075568;28;20388;-83
2021/11/10 01:55:45;;;;;;;0.00;0.00;;;;;;;;;;5095267;28;20024;-82
2021/11/10 01:58:10;;;;;;;0.57;0.57;;;;;;;;;;5095286;28;20478;-83
2021/11/10 02:00:37;;;;;;;0.45;0.22;;;;;;;;;;5094885;28;20081;-83
2021/11/10 02:03:03;;;;;;;0.40;0.40;;;;;;;;;;5095187;28;20020;-83
2021/11/10 02:05:29;;;;;;;0.20;0.20;;;;;;;;;;5094874;28;20031;-82
2021/11/10 02:07:55;;;;;;;0.00;0.00;;;;;;;;;;5094869;28;20044;-82
2021/11/10 02:10:24;;;;;;;0.10;0.10;;;;;;;;;;5092770;28;20036;-82
2021/11/10 02:12:49;;;;;;;0.10;0.10;;;;;;;;;;5095076;28;20028;-82
2021/11/10 02:15:16;;;;;;;0.17;0.17;;;;;;;;;;5094721;28;20085;-82
2021/11/10 02:17:41;;;;;;;0.40;0.40;;;;;;;;;;5094224;28;20107;-82
2021/11/10 02:20:08;;;;;;;0.00;0.00;;;;;;;;;;5094339;28;20177;-83
2021/11/10 02:22:34;;;;;;;0.17;0.17;;;;;;;;;;5094639;28;20031;-82
2021/11/10 02:25:01;;;;;;;0.45;0.45;;;;;;;;;;5094000;28;20027;-83
2021/11/10 02:27:28;;;;;;;0.25;0.25;;;;;;;;;;5093984;28;20043;-83
2021/11/10 02:29:53;;;;;;;0.22;0.22;;;;;;;;;;5094392;28;20023;-82
2021/11/10 02:32:19;;;;;;;0.50;0.50;;;;;;;;;;5094401;28;20460;-83
2021/11/10 02:34:45;;;;;;;1.08;0.85;;;;;;;;;;5094592;28;20060;-82
2021/11/10 02:37:12;;;;;;;0.65;0.65;;;;;;;;;;5094763;28;20479;-83
2021/11/10 02:39:37;;;;;;;0.00;0.00;;;;;;;;;;5093331;28;20043;-83
2021/11/10 02:42:03;;;;;;;0.00;0.00;;;;;;;;;;5094237;28;20448;-82
2021/11/10 02:44:29;;;;;;;1.30;0.52;;;;;;;;;;5094337;28;20051;-83
2021/11/10 02:46:54;;;;;;;0.60;0.60;;;;;;;;;;5094090;28;20354;-82
2021/11/10 02:49:20;;;;;;;0.38;0.38;;;;;;;;;;5094101;28;20027;-82
2021/11/10 02:51:53;;;;;;;0.25;0.25;;;;;;;;;;5093473;28;20119;-83
2021/11/10 02:54:18;;;;;;;0.30;0.30;;;;;;;;;;5094344;28;20362;-83
2021/11/10 02:56:44;;;;;;;0.15;0.15;;;;;;;;;;5093988;28;20035;-82
2021/11/10 02:59:09;;;;;;;0.30;0.30;;;;;;;;;;5093417;28;20102;-82
2021/11/10 03:01:34;;;;;;;0.13;0.13;;;;;;;;;;5092630;28;20035;-82
2021/11/10 03:04:00;;;;;;;23.38;0.57;;;;;;;;;;5093788;28;20032;-82
2021/11/10 03:06:25;;;;;;;0.00;0.00;;;;;;;;;;5093787;28;20040;-82
2021/11/10 03:08:50;;;;;;;0.20;0.20;;;;;;;;;;5093925;28;20016;-82
2021/11/10 03:11:16;;;;;;;0.00;0.00;;;;;;;;;;5093614;28;20111;-82
2021/11/10 03:13:41;;;;;;;0.15;0.15;;;;;;;;;;5093738;28;20032;-82
2021/11/10 03:16:06;;;;;;;0.00;0.00;;;;;;;;;;5092374;28;20028;-83
2021/11/10 03:18:32;;;;;;;0.10;0.10;;;;;;;;;;5093874;28;20456;-82
2021/11/10 03:20:57;;;;;;;0.00;0.00;;;;;;;;;;5093048;28;20032;-83
2021/11/10 03:23:22;;;;;;;0.10;0.10;;;;;;;;;;5093639;28;20448;-83
2021/11/10 03:25:47;;;;;;;0.00;0.00;;;;;;;;;;5093713;28;20028;-82
2021/11/10 03:28:13;;;;;;;0.10;0.10;;;;;;;;;;5093367;28;20046;-82
2021/11/10 03:30:39;;;;;;;0.20;0.20;;;;;;;;;;5093838;28;20024;-82
2021/11/10 03:33:04;;;;;;;0.00;0.00;;;;;;;;;;5093206;28;20077;-82
2021/11/10 03:35:29;;;;;;;0.35;0.35;;;;;;;;;;5093698;28;20023;-83
2021/11/10 03:37:54;;;;;;;0.08;0.08;;;;;;;;;;5091975;28;20024;-82
2021/11/10 03:40:20;;;;;;;0.10;0.10;;;;;;;;;;5093334;28;20456;-82
2021/11/10 03:42:45;;;;;;;0.00;0.00;;;;;;;;;;5093348;28;20032;-82
2021/11/10 03:45:10;;;;;;;0.00;0.00;;;;;;;;;;5093387;28;20027;-82
2021/11/10 03:47:36;;;;;;;0.47;0.47;;;;;;;;;;5092962;28;20128;-82
2021/11/10 03:50:02;;;;;;;0.82;0.82;;;;;;;;;;5092885;28;20036;-82
2021/11/10 03:52:28;;;;;;;0.00;0.00;;;;;;;;;;5099564;28;20103;-82
2021/11/10 03:54:53;;;;;;;0.00;0.00;;;;;;;;;;5100283;28;20424;-83
2021/11/10 03:57:18;;;;;;;0.30;0.30;;;;;;;;;;5099648;28;20078;-83
2021/11/10 03:59:44;;;;;;;0.73;0.50;;;;;;;;;;5099853;28;20066;-82
2021/11/10 04:02:09;;;;;;;0.28;0.28;;;;;;;;;;5099346;28;20024;-82
2021/11/10 04:04:35;;;;;;;0.00;0.00;;;;;;;;;;5099710;28;20084;-82
2021/11/10 04:07:00;;;;;;;0.00;0.00;;;;;;;;;;5099644;28;20070;-82
2021/11/10 04:09:26;;;;;;;0.10;0.10;;;;;;;;;;5100109;28;20460;-82
2021/11/10 04:11:51;;;;;;;0.35;0.35;;;;;;;;;;5099756;28;20035;-82
2021/11/10 04:14:17;;;;;;;0.00;0.00;;;;;;;;;;5099775;28;20428;-82
2021/11/10 04:16:42;;;;;;;0.10;0.10;;;;;;;;;;5100264;28;20035;-82
2021/11/10 04:19:07;;;;;;;0.00;0.00;;;;;;;;;;5099208;28;20384;-82
2021/11/10 04:21:33;;;;;;;1.30;1.10;;;;;;;;;;5099621;28;20051;-82
2021/11/10 04:23:58;;;;;;;0.20;0.20;;;;;;;;;;5099738;28;20028;-82
2021/11/10 04:26:25;;;;;;;0.00;0.00;;;;;;;;;;5098922;28;20032;-82
2021/11/10 04:28:50;;;;;;;0.00;0.00;;;;;;;;;;5099128;28;20121;-82
2021/11/10 04:31:17;;;;;;;0.20;0.17;;;;;;;;;;5099067;28;21596;-82
2021/11/10 04:33:43;;;;;;;0.70;0.70;;;;;;;;;;5099628;28;20055;-82
2021/11/10 04:36:08;;;;;;;0.00;0.00;;;;;;;;;;5099868;28;20097;-83
2021/11/10 04:38:34;;;;;;;0.47;0.45;;;;;;;;;;5099512;28;20024;-82
2021/11/10 04:40:59;;;;;;;0.20;0.20;;;;;;;;;;5099195;28;20392;-82
2021/11/10 04:43:24;;;;;;;0.10;0.10;;;;;;;;;;5098975;28;20096;-82
2021/11/10 04:45:57;;;;;;;0.50;0.50;;;;;;;;;;5099393;28;20020;-82
2021/11/10 04:48:23;;;;;;;0.17;0.17;;;;;;;;;;5099755;28;20081;-83
2021/11/10 04:50:48;;;;;;;1.40;1.17;;;;;;;;;;5099118;28;20016;-82
2021/11/10 04:53:14;;;;;;;0.20;0.20;;;;;;;;;;5099486;28;20023;-82
2021/11/10 04:55:40;;;;;;;0.00;0.00;;;;;;;;;;5098889;28;20023;-83
2021/11/10 04:58:05;;;;;;;3.92;1.65;;;;;;;;;;5099610;28;20031;-82
2021/11/10 05:00:31;;;;;;;0.00;0.00;;;;;;;;;;5099247;28;20024;-82
2021/11/10 05:02:56;;;;;;;0.20;0.20;;;;;;;;;;5096709;28;20057;-83
2021/11/10 05:05:22;;;;;;;0.17;0.17;;;;;;;;;;5095638;28;20039;-83
2021/11/10 05:07:47;;;;;;;0.70;0.22;;;;;;;;;;5096135;28;20081;-82
2021/11/10 05:10:13;;;;;;;0.08;0.08;;;;;;;;;;5094811;28;20119;-83
2021/11/10 05:12:38;;;;;;;0.00;0.00;;;;;;;;;;5096225;28;20028;-82
2021/11/10 05:15:04;;;;;;;0.10;0.10;;;;;;;;;;5095979;28;20519;-82
2021/11/10 05:17:29;;;;;;;0.60;0.57;;;;;;;;;;5096161;28;20032;-82
2021/11/10 05:19:54;;;;;;;1.83;0.85;;;;;;;;;;5095632;28;20023;-82
2021/11/10 05:22:21;;;;;;;0.10;0.10;;;;;;;;;;5095840;28;20460;-82
2021/11/10 05:24:46;;;;;;;0.00;0.00;;;;;;;;;;5095616;28;20028;-82
2021/11/10 05:27:12;;;;;;;0.10;0.10;;;;;;;;;;5095706;28;20483;-82
2021/11/10 05:29:37;;;;;;;0.10;0.10;;;;;;;;;;5095228;28;20024;-82
2021/11/10 05:32:03;;;;;;;0.20;0.20;;;;;;;;;;5095584;28;20059;-82
2021/11/10 05:34:28;;;;;;;2.50;0.60;;;;;;;;;;5095720;28;20020;-82
2021/11/10 05:36:53;;;;;;;0.00;0.00;;;;;;;;;;5095898;28;20051;-82
2021/11/10 05:39:19;;;;;;;0.70;0.70;;;;;;;;;;5095245;28;20035;-82
2021/11/10 05:41:45;;;;;;;0.08;0.08;;;;;;;;;;5095620;28;20028;-82
2021/11/10 05:44:11;;;;;;;0.10;0.10;;;;;;;;;;5095370;28;20055;-82
2021/11/10 05:46:37;;;;;;;0.52;0.52;;;;;;;;;;5094006;28;20039;-82
2021/11/10 05:49:02;;;;;;;0.05;0.05;;;;;;;;;;5095437;28;20437;-82
2021/11/10 05:51:27;;;;;;;0.20;0.20;;;;;;;;;;5095551;28;20028;-82
2021/11/10 05:53:54;;;;;;;0.15;0.15;;;;;;;;;;5095019;28;20074;-82
2021/11/10 05:56:21;;;;;;;0.00;0.00;;;;;;;;;;5095776;28;20020;-82
2021/11/10 05:58:46;;;;;;;0.00;0.00;;;;;;;;;;5095127;28;20085;-82
2021/11/10 06:01:12;;;;;;;0.52;0.52;;;;;;;;;;5094421;28;20028;-83
2021/11/10 06:03:37;;;;;;;0.60;0.50;;;;;;;;;;5094646;28;20024;-82
2021/11/10 06:06:02;;;;;;;0.00;0.00;;;;;;;;;;5094976;28;20020;-82
2021/11/10 06:08:28;;;;;;;0.50;0.50;;;;;;;;;;5094753;28;20476;-82
2021/11/10 06:10:53;;;;;;;0.03;0.03;;;;;;;;;;5094822;28;20017;-82
2021/11/10 06:13:18;;;;;;;0.15;0.15;;;;;;;;;;5094708;28;20066;-82
2021/11/10 06:15:43;;;;;;;0.10;0.10;;;;;;;;;;5094038;28;20148;-82
2021/11/10 06:18:09;;;;;;;0.00;0.00;;;;;;;;;;5095018;28;20024;-82
2021/11/10 06:20:37;;;;;;;0.10;0.10;;;;;;;;;;5094769;28;20119;-82
2021/11/10 06:23:03;;;;;;;0.00;0.00;;;;;;;;;;5094698;28;20032;-82
2021/11/10 06:25:28;;;;;;;0.10;0.10;;;;;;;;;;5093985;28;20028;-83
2021/11/10 06:27:53;;;;;;;1.75;1.25;;;;;;;;;;5094290;28;20454;-82
2021/11/10 06:30:18;;;;;;;0.05;0.05;;;;;;;;;;5094742;28;20032;-82
2021/11/10 06:32:45;;;;;;;0.00;0.00;;;;;;;;;;5093876;28;20402;-83
2021/11/10 06:35:12;;;;;;;0.40;0.40;;;;;;;;;;5094546;28;20024;-83
2021/11/10 06:37:37;;;;;;;0.00;0.00;;;;;;;;;;5093872;28;20498;-82
2021/11/10 06:40:03;;;;;;;0.20;0.20;;;;;;;;;;5094530;28;20020;-82
2021/11/10 06:42:29;;;;;;;0.15;0.15;;;;;;;;;;5093505;28;20031;-82
2021/11/10 06:44:55;;;;;;;0.00;0.00;;;;;;;;;;5094196;28;20044;-83
2021/11/10 06:47:21;;;;;;;0.00;0.00;;;;;;;;;;5089637;28;20464;-82
2021/11/10 06:49:46;;;;;;;0.00;0.00;;;;;;;;;;5093472;28;20042;-82
2021/11/10 06:52:12;;;;;;;0.00;0.00;;;;;;;;;;5093926;28;20032;-82
2021/11/10 06:54:37;;;;;;;0.00;0.00;;;;;;;;;;5093999;28;20090;-82
2021/11/10 06:57:02;;;;;;;0.17;0.17;;;;;;;;;;5094077;28;20384;-82
2021/11/10 06:59:28;;;;;;;0.38;0.35;;;;;;;;;;5094209;28;20032;-83
2021/11/10 07:01:53;;;;;;;0.10;0.10;;;;;;;;;;5093772;28;20024;-82
2021/11/10 07:04:18;;;;;;;0.17;0.17;;;;;;;;;;5093871;28;20468;-83
2021/11/10 07:06:44;;;;;;;0.00;0.00;;;;;;;;;;5093807;28;20036;-83
2021/11/10 07:09:09;;;;;;;0.10;0.10;;;;;;;;;;5094111;28;20023;-82
2021/11/10 07:11:35;;;;;;;0.38;0.38;;;;;;;;;;5093911;28;20110;-82
2021/11/10 07:14:02;;;;;;;0.10;0.10;;;;;;;;;;5093978;28;20058;-82
2021/11/10 07:16:27;;;;;;;0.10;0.10;;;;;;;;;;5093586;28;20024;-82
2021/11/10 07:18:53;;;;;;;0.10;0.10;;;;;;;;;;5093951;28;20027;-82
2021/11/10 07:21:18;;;;;;;0.57;0.57;;;;;;;;;;5093671;28;20036;-82
2021/11/10 07:23:43;;;;;;;0.20;0.20;;;;;;;;;;5093492;28;20016;-82
2021/11/10 07:26:08;;;;;;;0.30;0.30;;;;;;;;;;5092675;28;20098;-82
2021/11/10 07:28:34;;;;;;;0.15;0.15;;;;;;;;;;5093313;28;20434;-82
2021/11/10 07:30:59;;;;;;;0.20;0.20;;;;;;;;;;5091598;28;20032;-82
2021/11/10 07:33:25;;;;;;;0.10;0.10;;;;;;;;;;5092636;28;20460;-82
2021/11/10 07:35:50;;;;;;;0.00;0.00;;;;;;;;;;5093096;28;20040;-82
2021/11/10 07:38:17;;;;;;;0.43;0.25;;;;;;;;;;5093702;28;20035;-82
2021/11/10 07:40:42;;;;;;;0.95;0.90;;;;;;;;;;5093113;28;20111;-82
2021/11/10 07:43:09;;;;;;;0.20;0.20;;;;;;;;;;5091818;28;20444;-82
2021/11/10 07:45:36;;;;;;;0.10;0.10;;;;;;;;;;5093368;28;20448;-82
2021/11/10 07:48:06;;;;;;;0.65;0.65;;;;;;;;;;5093538;28;20040;-82
2021/11/10 07:50:34;;;;;;;1.10;1.00;;;;;;;;;;5083239;28;20029;-82
2021/11/10 07:53:00;;;;;;;0.50;0.50;;;;;;;;;;5073497;28;20471;-82
2021/11/10 07:55:26;;;;;;;0.10;0.10;;;;;;;;;;5076100;28;20020;-82
2021/11/10 07:57:53;;;;;;;0.10;0.10;;;;;;;;;;5093545;28;20032;-82
2021/11/10 08:00:19;;;;;;;0.20;0.20;;;;;;;;;;5092666;28;20020;-82
2021/11/10 08:02:45;;;;;;;0.45;0.45;;;;;;;;;;5092375;28;20380;-82
2021/11/10 08:05:11;;;;;;;0.30;0.30;;;;;;;;;;5088904;28;20032;-83
2021/11/10 08:07:37;;;;;;;0.93;0.93;;;;;;;;;;5080655;28;20484;-82
2021/11/10 08:10:02;;;;;;;0.10;0.10;;;;;;;;;;5091742;28;20020;-82
2021/11/10 08:12:31;;;;;;;0.20;0.20;;;;;;;;;;5091640;28;20043;-83
2021/11/10 08:14:56;;;;;;;0.15;0.15;;;;;;;;;;5092398;28;20039;-83
2021/11/10 08:17:21;;;;;;;0.00;0.00;;;;;;;;;;5090994;28;20024;-83
2021/11/10 08:19:46;;;;;;;0.10;0.10;;;;;;;;;;5090146;28;20143;-83
2021/11/10 08:22:12;;;;;;;0.00;0.00;;;;;;;;;;5090549;28;20024;-83
2021/11/10 08:24:38;;;;;;;0.10;0.10;;;;;;;;;;5089885;28;20054;-83
2021/11/10 08:27:03;;;;;;;0.20;0.20;;;;;;;;;;5092288;28;20064;-82
2021/11/10 08:29:29;;;;;;;0.43;0.43;;;;;;;;;;5091383;28;20090;-83
2021/11/10 08:31:54;;;;;;;0.10;0.10;;;;;;;;;;5091944;28;20035;-83
2021/11/10 08:34:19;;;;;;;0.00;0.00;;;;;;;;;;5092488;28;20458;-83
2021/11/10 08:36:44;;;;;;;0.20;0.20;;;;;;;;;;5091379;28;20044;-83
2021/11/10 08:39:10;;;;;;;0.00;0.00;;;;;;;;;;5093640;28;20024;-83
2021/11/10 08:41:35;;;;;;;0.20;0.20;;;;;;;;;;5095541;28;20031;-83
2021/11/10 08:44:01;;;;;;;0.10;0.10;;;;;;;;;;5095090;28;20724;-82
2021/11/10 08:46:27;;;;;;;0.10;0.10;;;;;;;;;;5095356;28;20140;-83
2021/11/10 08:48:54;;;;;;;0.30;0.30;;;;;;;;;;5096484;28;20055;-83
2021/11/10 08:51:20;;;;;;;0.60;0.60;;;;;;;;;;5096504;28;20032;-82
2021/11/10 08:53:46;;;;;;;0.10;0.10;;;;;;;;;;5096038;28;20364;-83
2021/11/10 08:56:12;;;;;;;0.00;0.00;;;;;;;;;;5096757;28;20117;-83
2021/11/10 08:58:37;;;;;;;0.10;0.10;;;;;;;;;;5096226;28;20035;-82
2021/11/10 09:01:02;;;;;;;0.10;0.10;;;;;;;;;;5096155;28;20020;-83
2021/11/10 09:03:28;;;;;;;0.00;0.00;;;;;;;;;;5096040;28;20032;-83
2021/11/10 09:05:53;;;;;;;0.00;0.00;;;;;;;;;;5096367;28;20032;-82
2021/11/10 09:08:19;;;;;;;0.05;0.05;;;;;;;;;;5095937;28;20366;-82
2021/11/10 09:10:45;;;;;;;0.00;0.00;;;;;;;;;;5094852;28;20539;-82
2021/11/10 09:13:11;;;;;;;0.10;0.10;;;;;;;;;;5095904;28;20091;-83
2021/11/10 09:15:36;;;;;;;0.20;0.20;;;;;;;;;;5095248;28;20026;-83
2021/11/10 09:18:03;;;;;;;0.03;0.03;;;;;;;;;;5096228;28;20036;-83
2021/11/10 09:20:29;;;;;;;0.00;0.00;;;;;;;;;;5095913;28;20028;-83
2021/11/10 09:22:55;;;;;;;0.00;0.00;;;;;;;;;;5096134;28;20373;-83
2021/11/10 09:25:23;;;;;;;0.10;0.10;;;;;;;;;;5095976;28;20067;-87
2021/11/10 09:27:48;;;;;;;0.38;0.30;;;;;;;;;;5096221;28;20100;-85
2021/11/10 09:30:15;;;;;;;0.28;0.28;;;;;;;;;;5096010;28;20024;-85
2021/11/10 09:32:42;;;;;;;0.15;0.15;;;;;;;;;;5095425;28;20368;-85
2021/11/10 09:35:08;;;;;;;0.00;0.00;;;;;;;;;;5092466;28;20047;-85
2021/11/10 09:37:34;;;;;;;0.13;0.13;;;;;;;;;;5090998;28;20055;-85
2021/11/10 09:39:59;;;;;;;0.00;0.00;;;;;;;;;;5091356;28;20047;-84
2021/11/10 09:42:26;;;;;;;0.00;0.00;;;;;;;;;;5091374;28;20075;-84
2021/11/10 09:44:54;;;;;;;0.00;0.00;;;;;;;;;;5092349;28;20060;-85
2021/11/10 09:47:19;;;;;;;0.00;0.00;;;;;;;;;;5092046;28;20042;-85
2021/11/10 09:49:46;;;;;;;0.00;0.00;;;;;;;;;;5089794;28;20111;-84
2021/11/10 09:52:11;;;;;;;0.03;0.03;;;;;;;;;;5091423;28;20031;-85
2021/11/10 09:54:36;;;;;;;0.00;0.00;;;;;;;;;;5087306;28;20032;-84
2021/11/10 09:57:02;;;;;;;1.25;0.85;;;;;;;;;;5090306;28;20036;-84
2021/11/10 09:59:27;;;;;;;0.10;0.10;;;;;;;;;;5090588;28;20521;-85
2021/11/10 10:01:54;;;;;;;0.00;0.00;;;;;;;;;;5091187;28;20480;-85
2021/11/10 10:04:21;;;;;;;0.00;0.00;;;;;;;;;;5087042;28;20115;-85
2021/11/10 10:06:46;;;;;;;0.00;0.00;;;;;;;;;;5069406;28;20021;-84
2021/11/10 10:09:12;;;;;;;0.45;0.08;;;;;;;;;;5070710;28;20526;-85
2021/11/10 10:11:38;;;;;;;1.13;0.75;;;;;;;;;;5070691;28;20055;-84
2021/11/10 10:14:03;;;;;;;0.00;0.00;;;;;;;;;;5071211;28;20472;-85
2021/11/10 10:16:30;;;;;;;0.00;0.00;;;;;;;;;;5070598;28;20035;-85
2021/11/10 10:19:05;;;;;;;0.00;0.00;;;;;;;;;;5070509;28;20036;-84
2021/11/10 10:21:31;;;;;;;0.05;0.05;;;;;;;;;;5070429;28;20077;-85
2021/11/10 10:23:57;;;;;;;0.10;0.10;;;;;;;;;;5070447;28;20064;-85
2021/11/10 10:26:23;;;;;;;0.00;0.00;;;;;;;;;;5090541;28;20468;-85
2021/11/10 10:28:51;;;;;;;0.08;0.08;;;;;;;;;;5090519;28;20384;-84
2021/11/10 10:31:21;;;;;;;0.00;0.00;;;;;;;;;;5090290;28;20043;-84
2021/11/10 10:33:49;;;;;;;0.00;0.00;;;;;;;;;;5091273;28;20020;-85
2021/11/10 10:36:22;;;;;;;0.30;0.30;;;;;;;;;;5090999;28;20442;-84
2021/11/10 10:38:49;;;;;;;0.10;0.10;;;;;;;;;;5091184;28;20036;-85
2021/11/10 10:41:21;;;;;;;0.22;0.22;;;;;;;;;;5090696;28;20028;-85
2021/11/10 10:43:52;;;;;;;0.17;0.17;;;;;;;;;;5090596;28;20036;-84
2021/11/10 10:46:18;;;;;;;0.00;0.00;;;;;;;;;;5090294;28;20024;-85
2021/11/10 10:48:44;;;;;;;0.00;0.00;;;;;;;;;;5090266;28;20526;-84
2021/11/10 10:51:14;;;;;;;0.00;0.00;;;;;;;;;;5089991;28;20016;-85
2021/11/10 10:53:42;;;;;;;0.03;0.03;;;;;;;;;;5090000;28;20036;-84
2021/11/10 10:56:23;;;;;;;0.10;0.10;;;;;;;;;;5090162;28;20040;-84
2021/11/10 10:58:50;;;;;;;0.22;0.22;;;;;;;;;;5090201;28;20388;-85
2021/11/10 11:01:35;;;;;;;0.10;0.10;;;;;;;;;;5087227;28;20050;-84
2021/11/10 11:04:03;;;;;;;0.10;0.10;;;;;;;;;;5090534;28;20061;-85
2021/11/10 11:06:31;;;;;;;0.15;0.15;;;;;;;;;;5089989;28;20373;-85
2021/11/10 11:08:58;;;;;;;1.85;0.75;;;;;;;;;;5089913;28;20173;-84
2021/11/10 11:11:43;;;;;;;0.10;0.10;;;;;;;;;;5089579;28;20028;-85
2021/11/10 11:14:16;;;;;;;0.17;0.17;;;;;;;;;;5089523;28;20096;-84
2021/11/10 11:16:43;;;;;;;0.00;0.00;;;;;;;;;;5089817;28;20020;-84
2021/11/10 11:19:15;;;;;;;0.10;0.10;;;;;;;;;;5090262;28;20035;-85
2021/11/10 11:21:53;;;;;;;0.00;0.00;;;;;;;;;;5089661;28;20557;-84
2021/11/10 11:24:32;;;;;;;0.35;0.35;;;;;;;;;;5089494;28;20107;-85
2021/11/10 11:27:12;;;;;;;0.20;0.20;;;;;;;;;;5089508;28;20039;-85
2021/11/10 11:29:38;;;;;;;0.10;0.10;;;;;;;;;;5089734;28;20024;-85
2021/11/10 11:32:24;;;;;;;17.90;0.65;;;;;;;;;;5089413;28;20431;-85
2021/11/10 11:34:50;;;;;;;0.08;0.08;;;;;;;;;;5085037;28;20119;-84
2021/11/10 11:37:16;;;;;;;0.10;0.10;;;;;;;;;;5089717;28;20054;-84
2021/11/10 11:39:41;;;;;;;0.00;0.00;;;;;;;;;;5089537;28;20353;-84
2021/11/10 11:42:06;;;;;;;0.10;0.10;;;;;;;;;;5089332;28;20073;-84
2021/11/10 11:44:34;;;;;;;0.10;0.10;;;;;;;;;;5084851;28;20047;-84
2021/11/10 11:46:59;;;;;;;0.00;0.00;;;;;;;;;;5088631;28;20024;-84
2021/11/10 11:49:24;;;;;;;0.00;0.00;;;;;;;;;;5090098;28;20092;-84
2021/11/10 11:51:49;;;;;;;0.00;0.00;;;;;;;;;;5089554;28;20028;-83
2021/11/10 11:54:15;;;;;;;0.22;0.22;;;;;;;;;;5089527;28;20020;-85
2021/11/10 11:56:42;;;;;;;0.00;0.00;;;;;;;;;;5088833;28;20039;-85
2021/11/10 11:59:08;;;;;;;0.65;0.57;;;;;;;;;;5088510;28;20032;-85
2021/11/10 12:01:36;;;;;;;0.08;0.08;;;;;;;;;;5089055;28;20467;-85
2021/11/10 12:04:05;;;;;;;0.10;0.10;;;;;;;;;;5088841;28;20103;-84
2021/11/10 12:06:32;;;;;;;0.05;0.05;;;;;;;;;;5089327;28;20062;-84
2021/11/10 12:08:58;;;;;;;0.10;0.10;;;;;;;;;;5088489;28;20086;-84
2021/11/10 12:11:36;;;;;;;0.17;0.17;;;;;;;;;;5088953;28;20017;-84
2021/11/10 12:14:04;;;;;;;0.28;0.28;;;;;;;;;;5092716;28;20023;-84
2021/11/10 12:16:43;;;;;;;0.10;0.10;;;;;;;;;;5091948;28;20143;-84
2021/11/10 12:19:08;;;;;;;0.10;0.10;;;;;;;;;;5093282;28;20444;-85
2021/11/10 12:21:39;;;;;;;0.00;0.00;;;;;;;;;;5092688;28;20044;-84
2021/11/10 12:24:09;;;;;;;0.03;0.03;;;;;;;;;;5090630;28;20032;-84
2021/11/10 12:26:54;;;;;;;0.10;0.10;;;;;;;;;;5071598;28;20024;-84
2021/11/10 12:29:37;;;;;;;0.10;0.10;;;;;;;;;;5072630;28;20039;-84
2021/11/10 12:32:03;;;;;;;0.00;0.00;;;;;;;;;;5072549;28;20028;-84
2021/11/10 12:34:29;;;;;;;0.00;0.00;;;;;;;;;;5071862;28;20115;-84
2021/11/10 12:36:56;;;;;;;0.00;0.00;;;;;;;;;;5071204;28;20467;-84
2021/11/10 12:39:33;;;;;;;0.10;0.10;;;;;;;;;;5072247;28;20453;-84
2021/11/10 12:42:05;;;;;;;0.47;0.47;;;;;;;;;;5071660;28;20082;-85
2021/11/10 12:44:31;;;;;;;0.08;0.08;;;;;;;;;;5070620;28;20028;-85
2021/11/10 12:46:57;;;;;;;0.00;0.00;;;;;;;;;;5071670;28;20044;-85
2021/11/10 12:49:23;;;;;;;0.57;0.57;;;;;;;;;;5073345;28;20025;-86
2021/11/10 12:52:06;;;;;;;0.00;0.00;;;;;;;;;;5072396;28;20450;-85
2021/11/10 12:54:32;;;;;;;1.08;0.90;;;;;;;;;;5072141;28;20461;-85
2021/11/10 12:56:58;;;;;;;0.20;0.20;;;;;;;;;;5072555;28;20493;-85
2021/11/10 12:59:30;;;;;;;0.10;0.10;;;;;;;;;;5077711;28;20519;-85
2021/11/10 13:01:57;;;;;;;0.00;0.00;;;;;;;;;;5092724;28;20084;-84
2021/11/10 13:04:24;;;;;;;0.00;0.00;;;;;;;;;;5091447;28;20216;-84
2021/11/10 13:06:55;;;;;;;0.15;0.15;;;;;;;;;;5090169;28;20450;-84
2021/11/10 13:09:26;;;;;;;2.15;1.20;;;;;;;;;;5088188;28;20534;-85
2021/11/10 13:11:52;;;;;;;0.00;0.00;;;;;;;;;;5090367;28;20031;-83
2021/11/10 13:14:19;;;;;;;2.20;1.55;;;;;;;;;;5089152;28;20044;-84
2021/11/10 13:17:03;;;;;;;0.00;0.00;;;;;;;;;;5089981;28;20054;-83
2021/11/10 13:19:50;;;;;;;0.52;0.52;;;;;;;;;;5091458;28;20465;-83
2021/11/10 13:22:19;;;;;;;0.00;0.00;;;;;;;;;;5091641;28;20032;-84
2021/11/10 13:24:45;;;;;;;0.00;0.00;;;;;;;;;;5090963;28;20024;-83
2021/11/10 13:27:10;;;;;;;0.40;0.40;;;;;;;;;;5092115;28;20058;-84
2021/11/10 13:29:40;;;;;;;0.13;0.13;;;;;;;;;;5090848;28;20028;-84
2021/11/10 13:32:12;;;;;;;0.00;0.00;;;;;;;;;;5091562;28;20032;-84
2021/11/10 13:34:39;;;;;;;0.10;0.10;;;;;;;;;;5090634;28;20062;-84
2021/11/10 13:37:06;;;;;;;0.00;0.00;;;;;;;;;;5090147;28;20051;-85
2021/11/10 13:39:31;;;;;;;0.00;0.00;;;;;;;;;;5094879;28;20024;-87
2021/11/10 13:41:57;;;;;;;0.00;0.00;;;;;;;;;;5094502;28;20097;-85
2021/11/10 13:44:26;;;;;;;0.00;0.00;;;;;;;;;;5081523;28;20021;-85
2021/11/10 13:46:53;;;;;;;0.00;0.00;;;;;;;;;;5093347;28;20032;-85
2021/11/10 13:49:29;;;;;;;0.10;0.10;;;;;;;;;;5094621;28;20043;-85
2021/11/10 13:51:56;;;;;;;0.00;0.00;;;;;;;;;;5093131;28;20123;-85
2021/11/10 13:54:22;;;;;;;0.00;0.00;;;;;;;;;;5093581;28;20555;-85
2021/11/10 13:56:50;;;;;;;0.45;0.38;;;;;;;;;;5093920;28;20114;-85
2021/11/10 13:59:19;;;;;;;0.00;0.00;;;;;;;;;;5087209;28;21560;-86
2021/11/10 14:01:58;;;;;;;0.00;0.00;;;;;;;;;;5083141;28;20024;-85
2021/11/10 14:04:25;;;;;;;0.00;0.00;;;;;;;;;;5104004;28;20448;-85
2021/11/10 14:07:10;;;;;;;0.00;0.00;;;;;;;;;;5088857;28;20038;-85
2021/11/10 14:09:37;;;;;;;0.00;0.00;;;;;;;;;;5093072;28;20028;-85
2021/11/10 14:12:18;;;;;;;0.00;0.00;;;;;;;;;;5093857;28;20089;-86
2021/11/10 14:14:43;;;;;;;0.00;0.00;;;;;;;;;;5092108;28;20031;-85
2021/11/10 14:17:08;;;;;;;0.00;0.00;;;;;;;;;;5076390;28;20025;-85
2021/11/10 14:19:33;;;;;;;0.00;0.00;;;;;;;;;;5077908;28;20077;-87
2021/11/10 14:22:02;;;;;;;0.05;0.05;;;;;;;;;;5093420;28;20422;-85
2021/11/10 14:24:30;;;;;;;0.03;0.03;;;;;;;;;;5079007;28;20033;-86
2021/11/10 14:27:02;;;;;;;0.00;0.00;;;;;;;;;;5079293;28;20020;-85
2021/11/10 14:29:29;;;;;;;0.10;0.10;;;;;;;;;;5090380;28;20097;-85
2021/11/10 14:31:55;;;;;;;0.00;0.00;;;;;;;;;;5083803;28;20043;-86
2021/11/10 14:34:26;;;;;;;0.35;0.35;;;;;;;;;;5083559;28;20029;-86
2021/11/10 14:36:51;;;;;;;0.85;0.65;;;;;;;;;;5076784;28;20048;-85
2021/11/10 14:39:24;;;;;;;0.22;0.22;;;;;;;;;;5070081;28;20416;-85
2021/11/10 14:41:56;;;;;;;0.10;0.10;;;;;;;;;;5073190;28;20027;-83